sensor_id;sensor_type;location;lat;lon;timestamp;P1;durP1;ratioP1;P2;durP2;ratioP2
7833;SDS011;3962;42.696;23.354;2024-02-23T00:01:50;13.90;;;13.30;;
7833;SDS011;3962;42.696;23.354;2024-02-23T00:04:17;15.80;;;15.10;;
7833;SDS011;3962;42.696;23.354;2024-02-23T00:06:44;15.80;;;15.10;;
7833;SDS011;3962;42.696;23.354;2024-02-23T00:09:11;13.90;;;13.30;;
7833;SDS011;3962;42.696;23.354;2024-02-23T00:11:40;15.70;;;15.00;;
7833;SDS011;3962;42.696;23.354;2024-02-23T00:14:09;14.40;;;13.80;;
7833;SDS011;3962;42.696;23.354;2024-02-23T00:16:39;15.77;;;15.07;;
7833;SDS011;3962;42.696;23.354;2024-02-23T00:19:07;15.03;;;14.43;;
7833;SDS011;3962;42.696;23.354;2024-02-23T00:21:34;15.70;;;15.00;;
7833;SDS011;3962;42.696;23.354;2024-02-23T00:24:02;15.60;;;14.90;;
7833;SDS011;3962;42.696;23.354;2024-02-23T00:26:29;15.97;;;15.27;;
7833;SDS011;3962;42.696;23.354;2024-02-23T00:28:57;14.43;;;13.83;;
7833;SDS011;3962;42.696;23.354;2024-02-23T00:31:24;14.17;;;13.57;;
7833;SDS011;3962;42.696;23.354;2024-02-23T00:33:50;15.57;;;14.87;;
7833;SDS011;3962;42.696;23.354;2024-02-23T00:36:17;14.07;;;13.47;;
7833;SDS011;3962;42.696;23.354;2024-02-23T00:38:44;13.97;;;13.37;;
7833;SDS011;3962;42.696;23.354;2024-02-23T00:41:11;14.30;;;13.70;;
7833;SDS011;3962;42.696;23.354;2024-02-23T00:43:38;13.90;;;13.13;;
7833;SDS011;3962;42.696;23.354;2024-02-23T00:46:06;14.43;;;13.83;;
7833;SDS011;3962;42.696;23.354;2024-02-23T00:48:34;14.10;;;13.50;;
7833;SDS011;3962;42.696;23.354;2024-02-23T00:51:01;14.63;;;14.03;;
7833;SDS011;3962;42.696;23.354;2024-02-23T00:53:28;14.80;;;14.20;;
7833;SDS011;3962;42.696;23.354;2024-02-23T00:55:54;13.97;;;13.37;;
7833;SDS011;3962;42.696;23.354;2024-02-23T00:58:21;15.20;;;14.50;;
7833;SDS011;3962;42.696;23.354;2024-02-23T01:00:48;13.43;;;12.83;;
7833;SDS011;3962;42.696;23.354;2024-02-23T01:03:16;15.40;;;14.70;;
7833;SDS011;3962;42.696;23.354;2024-02-23T01:05:43;14.77;;;14.07;;
7833;SDS011;3962;42.696;23.354;2024-02-23T01:08:09;15.90;;;15.20;;
7833;SDS011;3962;42.696;23.354;2024-02-23T01:10:36;15.53;;;14.83;;
7833;SDS011;3962;42.696;23.354;2024-02-23T01:13:03;14.90;;;14.30;;
7833;SDS011;3962;42.696;23.354;2024-02-23T01:15:30;14.87;;;14.20;;
7833;SDS011;3962;42.696;23.354;2024-02-23T01:17:57;14.57;;;13.97;;
7833;SDS011;3962;42.696;23.354;2024-02-23T01:20:25;15.43;;;14.73;;
7833;SDS011;3962;42.696;23.354;2024-02-23T01:22:52;15.90;;;15.20;;
7833;SDS011;3962;42.696;23.354;2024-02-23T01:25:19;15.27;;;14.57;;
7833;SDS011;3962;42.696;23.354;2024-02-23T01:27:45;15.83;;;15.13;;
7833;SDS011;3962;42.696;23.354;2024-02-23T01:30:13;14.13;;;13.53;;
7833;SDS011;3962;42.696;23.354;2024-02-23T01:32:40;15.10;;;14.40;;
7833;SDS011;3962;42.696;23.354;2024-02-23T01:35:07;16.10;;;15.40;;
7833;SDS011;3962;42.696;23.354;2024-02-23T01:37:35;15.87;;;15.17;;
7833;SDS011;3962;42.696;23.354;2024-02-23T01:40:03;15.57;;;14.87;;
7833;SDS011;3962;42.696;23.354;2024-02-23T01:42:31;15.00;;;14.40;;
7833;SDS011;3962;42.696;23.354;2024-02-23T01:44:58;15.00;;;14.40;;
7833;SDS011;3962;42.696;23.354;2024-02-23T01:47:25;14.27;;;13.67;;
7833;SDS011;3962;42.696;23.354;2024-02-23T01:49:53;15.00;;;14.30;;
7833;SDS011;3962;42.696;23.354;2024-02-23T01:52:22;16.60;;;15.90;;
7833;SDS011;3962;42.696;23.354;2024-02-23T01:54:50;15.77;;;15.07;;
7833;SDS011;3962;42.696;23.354;2024-02-23T01:57:17;14.23;;;13.63;;
7833;SDS011;3962;42.696;23.354;2024-02-23T01:59:44;14.33;;;13.73;;
7833;SDS011;3962;42.696;23.354;2024-02-23T02:02:11;15.47;;;14.77;;
7833;SDS011;3962;42.696;23.354;2024-02-23T02:04:38;14.80;;;14.20;;
7833;SDS011;3962;42.696;23.354;2024-02-23T02:07:05;15.97;;;15.27;;
7833;SDS011;3962;42.696;23.354;2024-02-23T02:09:31;15.83;;;15.13;;
7833;SDS011;3962;42.696;23.354;2024-02-23T02:12:00;16.50;;;15.80;;
7833;SDS011;3962;42.696;23.354;2024-02-23T02:14:27;16.00;;;15.30;;
7833;SDS011;3962;42.696;23.354;2024-02-23T02:16:56;15.57;;;14.87;;
7833;SDS011;3962;42.696;23.354;2024-02-23T02:19:23;15.07;;;14.37;;
7833;SDS011;3962;42.696;23.354;2024-02-23T02:21:50;14.90;;;14.30;;
7833;SDS011;3962;42.696;23.354;2024-02-23T02:24:17;15.77;;;15.07;;
7833;SDS011;3962;42.696;23.354;2024-02-23T02:26:43;15.37;;;14.67;;
7833;SDS011;3962;42.696;23.354;2024-02-23T02:29:13;16.43;;;15.73;;
7833;SDS011;3962;42.696;23.354;2024-02-23T02:31:40;16.07;;;15.37;;
7833;SDS011;3962;42.696;23.354;2024-02-23T02:34:06;15.57;;;14.87;;
7833;SDS011;3962;42.696;23.354;2024-02-23T02:36:33;13.90;;;13.30;;
7833;SDS011;3962;42.696;23.354;2024-02-23T02:39:00;15.80;;;15.10;;
7833;SDS011;3962;42.696;23.354;2024-02-23T02:41:27;15.40;;;14.70;;
7833;SDS011;3962;42.696;23.354;2024-02-23T02:43:56;16.07;;;15.37;;
7833;SDS011;3962;42.696;23.354;2024-02-23T02:46:24;16.13;;;15.43;;
7833;SDS011;3962;42.696;23.354;2024-02-23T02:48:50;16.33;;;15.63;;
7833;SDS011;3962;42.696;23.354;2024-02-23T02:51:17;15.43;;;14.73;;
7833;SDS011;3962;42.696;23.354;2024-02-23T02:53:44;15.53;;;14.83;;
7833;SDS011;3962;42.696;23.354;2024-02-23T02:56:10;15.57;;;14.87;;
7833;SDS011;3962;42.696;23.354;2024-02-23T02:58:37;15.33;;;14.63;;
7833;SDS011;3962;42.696;23.354;2024-02-23T03:01:04;15.30;;;14.60;;
7833;SDS011;3962;42.696;23.354;2024-02-23T03:03:32;15.27;;;14.60;;
7833;SDS011;3962;42.696;23.354;2024-02-23T03:05:59;15.83;;;15.13;;
7833;SDS011;3962;42.696;23.354;2024-02-23T03:08:25;14.23;;;13.63;;
7833;SDS011;3962;42.696;23.354;2024-02-23T03:10:52;15.50;;;14.80;;
7833;SDS011;3962;42.696;23.354;2024-02-23T03:13:19;15.40;;;14.70;;
7833;SDS011;3962;42.696;23.354;2024-02-23T03:15:46;14.63;;;14.03;;
7833;SDS011;3962;42.696;23.354;2024-02-23T03:18:12;15.70;;;15.00;;
7833;SDS011;3962;42.696;23.354;2024-02-23T03:20:41;15.13;;;14.50;;
7833;SDS011;3962;42.696;23.354;2024-02-23T03:23:08;15.50;;;14.80;;
7833;SDS011;3962;42.696;23.354;2024-02-23T03:25:35;16.47;;;15.77;;
7833;SDS011;3962;42.696;23.354;2024-02-23T03:28:01;15.90;;;15.20;;
7833;SDS011;3962;42.696;23.354;2024-02-23T03:30:28;15.27;;;14.57;;
7833;SDS011;3962;42.696;23.354;2024-02-23T03:32:55;15.00;;;14.30;;
7833;SDS011;3962;42.696;23.354;2024-02-23T03:35:22;15.23;;;14.53;;
7833;SDS011;3962;42.696;23.354;2024-02-23T03:37:50;15.00;;;14.30;;
7833;SDS011;3962;42.696;23.354;2024-02-23T03:40:17;15.50;;;14.70;;
7833;SDS011;3962;42.696;23.354;2024-02-23T03:42:44;16.70;;;16.00;;
7833;SDS011;3962;42.696;23.354;2024-02-23T03:45:11;14.57;;;13.97;;
7833;SDS011;3962;42.696;23.354;2024-02-23T03:47:38;15.80;;;15.10;;
7833;SDS011;3962;42.696;23.354;2024-02-23T03:50:06;14.83;;;14.23;;
7833;SDS011;3962;42.696;23.354;2024-02-23T03:52:33;16.40;;;15.70;;
7833;SDS011;3962;42.696;23.354;2024-02-23T03:55:01;15.63;;;14.93;;
7833;SDS011;3962;42.696;23.354;2024-02-23T03:57:28;14.93;;;14.33;;
7833;SDS011;3962;42.696;23.354;2024-02-23T03:59:57;14.30;;;13.70;;
7833;SDS011;3962;42.696;23.354;2024-02-23T04:02:24;16.20;;;15.50;;
7833;SDS011;3962;42.696;23.354;2024-02-23T04:04:50;15.37;;;14.67;;
7833;SDS011;3962;42.696;23.354;2024-02-23T04:07:17;14.57;;;13.87;;
7833;SDS011;3962;42.696;23.354;2024-02-23T04:09:44;15.07;;;14.40;;
7833;SDS011;3962;42.696;23.354;2024-02-23T04:12:18;14.30;;;13.70;;
7833;SDS011;3962;42.696;23.354;2024-02-23T04:14:45;16.03;;;15.33;;
7833;SDS011;3962;42.696;23.354;2024-02-23T04:17:12;14.50;;;13.80;;
7833;SDS011;3962;42.696;23.354;2024-02-23T04:19:38;14.47;;;13.87;;
7833;SDS011;3962;42.696;23.354;2024-02-23T04:22:06;15.20;;;14.57;;
7833;SDS011;3962;42.696;23.354;2024-02-23T04:24:33;14.07;;;13.47;;
7833;SDS011;3962;42.696;23.354;2024-02-23T04:27:00;16.03;;;15.23;;
7833;SDS011;3962;42.696;23.354;2024-02-23T04:29:27;15.67;;;14.97;;
7833;SDS011;3962;42.696;23.354;2024-02-23T04:31:54;15.10;;;14.40;;
7833;SDS011;3962;42.696;23.354;2024-02-23T04:34:22;16.47;;;15.77;;
7833;SDS011;3962;42.696;23.354;2024-02-23T04:36:49;15.63;;;14.93;;
7833;SDS011;3962;42.696;23.354;2024-02-23T04:39:15;14.63;;;13.93;;
7833;SDS011;3962;42.696;23.354;2024-02-23T04:41:42;14.97;;;14.27;;
7833;SDS011;3962;42.696;23.354;2024-02-23T04:44:09;14.53;;;13.93;;
7833;SDS011;3962;42.696;23.354;2024-02-23T04:46:37;17.53;;;16.73;;
7833;SDS011;3962;42.696;23.354;2024-02-23T04:49:04;15.87;;;15.17;;
7833;SDS011;3962;42.696;23.354;2024-02-23T04:51:31;15.80;;;15.10;;
7833;SDS011;3962;42.696;23.354;2024-02-23T04:53:57;15.53;;;14.83;;
7833;SDS011;3962;42.696;23.354;2024-02-23T04:56:24;14.30;;;13.70;;
7833;SDS011;3962;42.696;23.354;2024-02-23T04:58:51;15.50;;;14.80;;
7833;SDS011;3962;42.696;23.354;2024-02-23T05:01:17;15.20;;;14.50;;
7833;SDS011;3962;42.696;23.354;2024-02-23T05:03:46;17.60;;;16.80;;
7833;SDS011;3962;42.696;23.354;2024-02-23T05:06:12;15.50;;;14.80;;
7833;SDS011;3962;42.696;23.354;2024-02-23T05:08:39;17.23;;;16.37;;
7833;SDS011;3962;42.696;23.354;2024-02-23T05:11:06;14.83;;;14.13;;
7833;SDS011;3962;42.696;23.354;2024-02-23T05:13:33;16.13;;;15.43;;
7833;SDS011;3962;42.696;23.354;2024-02-23T05:15:59;16.37;;;15.67;;
7833;SDS011;3962;42.696;23.354;2024-02-23T05:18:26;15.57;;;14.87;;
7833;SDS011;3962;42.696;23.354;2024-02-23T05:20:54;16.20;;;15.50;;
7833;SDS011;3962;42.696;23.354;2024-02-23T05:23:21;16.27;;;15.57;;
7833;SDS011;3962;42.696;23.354;2024-02-23T05:25:48;16.07;;;15.37;;
7833;SDS011;3962;42.696;23.354;2024-02-23T05:28:15;15.73;;;15.03;;
7833;SDS011;3962;42.696;23.354;2024-02-23T05:30:41;15.03;;;14.43;;
7833;SDS011;3962;42.696;23.354;2024-02-23T05:33:08;16.20;;;15.43;;
7833;SDS011;3962;42.696;23.354;2024-02-23T05:35:35;17.80;;;16.90;;
7833;SDS011;3962;42.696;23.354;2024-02-23T05:38:03;16.60;;;15.87;;
7833;SDS011;3962;42.696;23.354;2024-02-23T05:40:31;15.77;;;15.07;;
7833;SDS011;3962;42.696;23.354;2024-02-23T05:42:58;16.33;;;15.53;;
7833;SDS011;3962;42.696;23.354;2024-02-23T05:45:25;17.93;;;17.03;;
7833;SDS011;3962;42.696;23.354;2024-02-23T05:47:52;18.50;;;17.60;;
7833;SDS011;3962;42.696;23.354;2024-02-23T05:50:18;16.80;;;15.90;;
7833;SDS011;3962;42.696;23.354;2024-02-23T05:52:45;16.90;;;16.03;;
7833;SDS011;3962;42.696;23.354;2024-02-23T05:55:13;15.47;;;14.77;;
7833;SDS011;3962;42.696;23.354;2024-02-23T05:57:40;16.60;;;15.90;;
7833;SDS011;3962;42.696;23.354;2024-02-23T06:00:07;17.50;;;16.60;;
7833;SDS011;3962;42.696;23.354;2024-02-23T06:02:35;17.60;;;16.70;;
7833;SDS011;3962;42.696;23.354;2024-02-23T06:05:01;15.53;;;14.83;;
7833;SDS011;3962;42.696;23.354;2024-02-23T06:07:29;17.83;;;17.03;;
7833;SDS011;3962;42.696;23.354;2024-02-23T06:09:56;17.07;;;16.27;;
7833;SDS011;3962;42.696;23.354;2024-02-23T06:12:24;16.13;;;15.43;;
7833;SDS011;3962;42.696;23.354;2024-02-23T06:14:52;16.60;;;15.90;;
7833;SDS011;3962;42.696;23.354;2024-02-23T06:17:20;17.27;;;16.47;;
7833;SDS011;3962;42.696;23.354;2024-02-23T06:19:48;17.67;;;16.87;;
7833;SDS011;3962;42.696;23.354;2024-02-23T06:22:15;15.77;;;14.97;;
7833;SDS011;3962;42.696;23.354;2024-02-23T06:24:46;14.70;;;14.10;;
7833;SDS011;3962;42.696;23.354;2024-02-23T06:27:12;17.00;;;16.20;;
7833;SDS011;3962;42.696;23.354;2024-02-23T06:29:41;16.83;;;16.03;;
7833;SDS011;3962;42.696;23.354;2024-02-23T06:32:07;15.90;;;15.20;;
7833;SDS011;3962;42.696;23.354;2024-02-23T06:34:34;16.30;;;15.60;;
7833;SDS011;3962;42.696;23.354;2024-02-23T06:37:01;15.43;;;14.73;;
7833;SDS011;3962;42.696;23.354;2024-02-23T06:39:28;16.20;;;15.50;;
7833;SDS011;3962;42.696;23.354;2024-02-23T06:41:55;16.67;;;15.87;;
7833;SDS011;3962;42.696;23.354;2024-02-23T06:44:22;23.33;;;21.97;;
7833;SDS011;3962;42.696;23.354;2024-02-23T06:46:50;14.67;;;13.97;;
7833;SDS011;3962;42.696;23.354;2024-02-23T06:49:17;43.50;;;39.87;;
7833;SDS011;3962;42.696;23.354;2024-02-23T06:51:44;15.20;;;14.40;;
7833;SDS011;3962;42.696;23.354;2024-02-23T06:54:11;17.33;;;16.53;;
7833;SDS011;3962;42.696;23.354;2024-02-23T06:56:38;15.80;;;15.07;;
7833;SDS011;3962;42.696;23.354;2024-02-23T06:59:06;14.53;;;13.93;;
7833;SDS011;3962;42.696;23.354;2024-02-23T07:01:33;15.33;;;14.63;;
7833;SDS011;3962;42.696;23.354;2024-02-23T07:04:02;16.07;;;15.37;;
7833;SDS011;3962;42.696;23.354;2024-02-23T07:06:29;15.73;;;15.03;;
7833;SDS011;3962;42.696;23.354;2024-02-23T07:08:57;15.67;;;14.97;;
7833;SDS011;3962;42.696;23.354;2024-02-23T07:11:24;15.80;;;15.00;;
7833;SDS011;3962;42.696;23.354;2024-02-23T07:13:51;17.30;;;16.50;;
7833;SDS011;3962;42.696;23.354;2024-02-23T07:16:17;14.57;;;13.87;;
7833;SDS011;3962;42.696;23.354;2024-02-23T07:18:44;14.57;;;13.87;;
7833;SDS011;3962;42.696;23.354;2024-02-23T07:21:12;15.77;;;15.07;;
7833;SDS011;3962;42.696;23.354;2024-02-23T07:23:39;16.73;;;15.83;;
7833;SDS011;3962;42.696;23.354;2024-02-23T07:26:06;15.90;;;15.10;;
7833;SDS011;3962;42.696;23.354;2024-02-23T07:28:33;16.00;;;15.20;;
7833;SDS011;3962;42.696;23.354;2024-02-23T07:31:00;14.53;;;13.87;;
7833;SDS011;3962;42.696;23.354;2024-02-23T07:33:26;15.03;;;14.33;;
7833;SDS011;3962;42.696;23.354;2024-02-23T07:35:53;14.03;;;13.43;;
7833;SDS011;3962;42.696;23.354;2024-02-23T07:38:22;15.37;;;14.67;;
7833;SDS011;3962;42.696;23.354;2024-02-23T07:40:48;13.97;;;13.37;;
7833;SDS011;3962;42.696;23.354;2024-02-23T07:43:15;13.37;;;12.77;;
7833;SDS011;3962;42.696;23.354;2024-02-23T07:45:42;14.47;;;13.83;;
7833;SDS011;3962;42.696;23.354;2024-02-23T07:48:10;14.13;;;13.50;;
7833;SDS011;3962;42.696;23.354;2024-02-23T07:50:37;13.20;;;12.60;;
7833;SDS011;3962;42.696;23.354;2024-02-23T07:53:03;13.83;;;13.17;;
7833;SDS011;3962;42.696;23.354;2024-02-23T07:55:32;15.07;;;14.37;;
7833;SDS011;3962;42.696;23.354;2024-02-23T07:57:59;13.27;;;12.67;;
7833;SDS011;3962;42.696;23.354;2024-02-23T08:00:26;13.73;;;13.03;;
7833;SDS011;3962;42.696;23.354;2024-02-23T08:02:54;13.63;;;13.03;;
7833;SDS011;3962;42.696;23.354;2024-02-23T08:05:21;13.10;;;12.50;;
7833;SDS011;3962;42.696;23.354;2024-02-23T08:07:48;13.33;;;12.70;;
7833;SDS011;3962;42.696;23.354;2024-02-23T08:10:15;12.93;;;12.30;;
7833;SDS011;3962;42.696;23.354;2024-02-23T08:12:43;13.23;;;12.53;;
7833;SDS011;3962;42.696;23.354;2024-02-23T08:15:10;14.10;;;13.50;;
7833;SDS011;3962;42.696;23.354;2024-02-23T08:17:37;12.53;;;11.93;;
7833;SDS011;3962;42.696;23.354;2024-02-23T08:20:04;13.60;;;13.00;;
7833;SDS011;3962;42.696;23.354;2024-02-23T08:22:32;12.33;;;11.83;;
7833;SDS011;3962;42.696;23.354;2024-02-23T08:24:59;13.93;;;13.33;;
7833;SDS011;3962;42.696;23.354;2024-02-23T08:27:26;12.67;;;12.07;;
7833;SDS011;3962;42.696;23.354;2024-02-23T08:29:57;13.07;;;12.47;;
7833;SDS011;3962;42.696;23.354;2024-02-23T08:32:24;13.33;;;12.67;;
7833;SDS011;3962;42.696;23.354;2024-02-23T08:34:51;12.43;;;11.77;;
7833;SDS011;3962;42.696;23.354;2024-02-23T08:37:24;12.23;;;11.63;;
7833;SDS011;3962;42.696;23.354;2024-02-23T08:39:51;11.17;;;10.67;;
7833;SDS011;3962;42.696;23.354;2024-02-23T08:42:18;10.43;;;10.03;;
7833;SDS011;3962;42.696;23.354;2024-02-23T08:44:44;10.83;;;10.33;;
7833;SDS011;3962;42.696;23.354;2024-02-23T08:47:13;10.67;;;10.17;;
7833;SDS011;3962;42.696;23.354;2024-02-23T08:49:39;11.73;;;11.23;;
7833;SDS011;3962;42.696;23.354;2024-02-23T08:52:06;11.07;;;10.57;;
7833;SDS011;3962;42.696;23.354;2024-02-23T08:54:33;10.60;;;10.00;;
7833;SDS011;3962;42.696;23.354;2024-02-23T08:57:00;10.17;;;9.77;;
7833;SDS011;3962;42.696;23.354;2024-02-23T08:59:27;11.50;;;11.00;;
7833;SDS011;3962;42.696;23.354;2024-02-23T09:01:53;9.50;;;8.97;;
7833;SDS011;3962;42.696;23.354;2024-02-23T09:04:22;10.13;;;9.73;;
7833;SDS011;3962;42.696;23.354;2024-02-23T09:06:48;10.40;;;9.90;;
7833;SDS011;3962;42.696;23.354;2024-02-23T09:09:16;9.67;;;9.27;;
7833;SDS011;3962;42.696;23.354;2024-02-23T09:11:43;10.00;;;9.60;;
7833;SDS011;3962;42.696;23.354;2024-02-23T09:14:10;9.17;;;8.77;;
7833;SDS011;3962;42.696;23.354;2024-02-23T09:16:36;8.07;;;7.77;;
7833;SDS011;3962;42.696;23.354;2024-02-23T09:19:04;9.60;;;9.10;;
7833;SDS011;3962;42.696;23.354;2024-02-23T09:21:32;8.83;;;8.43;;
7833;SDS011;3962;42.696;23.354;2024-02-23T09:23:59;9.13;;;8.73;;
7833;SDS011;3962;42.696;23.354;2024-02-23T09:26:26;11.37;;;10.87;;
7833;SDS011;3962;42.696;23.354;2024-02-23T09:28:53;9.63;;;9.23;;
7833;SDS011;3962;42.696;23.354;2024-02-23T09:31:20;10.27;;;9.87;;
7833;SDS011;3962;42.696;23.354;2024-02-23T09:33:46;9.73;;;9.33;;
7833;SDS011;3962;42.696;23.354;2024-02-23T09:36:16;10.03;;;9.63;;
7833;SDS011;3962;42.696;23.354;2024-02-23T09:38:44;11.03;;;10.53;;
7833;SDS011;3962;42.696;23.354;2024-02-23T09:41:11;9.50;;;9.10;;
7833;SDS011;3962;42.696;23.354;2024-02-23T09:43:45;9.90;;;9.50;;
7833;SDS011;3962;42.696;23.354;2024-02-23T09:46:13;9.00;;;8.60;;
7833;SDS011;3962;42.696;23.354;2024-02-23T09:48:40;9.77;;;9.37;;
7833;SDS011;3962;42.696;23.354;2024-02-23T09:51:08;9.03;;;8.63;;
7833;SDS011;3962;42.696;23.354;2024-02-23T09:53:36;9.23;;;8.83;;
7833;SDS011;3962;42.696;23.354;2024-02-23T09:56:05;9.90;;;9.50;;
7833;SDS011;3962;42.696;23.354;2024-02-23T09:58:34;8.63;;;8.23;;
7833;SDS011;3962;42.696;23.354;2024-02-23T10:01:03;9.13;;;8.73;;
7833;SDS011;3962;42.696;23.354;2024-02-23T10:03:30;9.83;;;9.43;;
7833;SDS011;3962;42.696;23.354;2024-02-23T10:05:57;9.90;;;9.50;;
7833;SDS011;3962;42.696;23.354;2024-02-23T10:08:26;9.23;;;8.83;;
7833;SDS011;3962;42.696;23.354;2024-02-23T10:10:53;9.27;;;8.87;;
7833;SDS011;3962;42.696;23.354;2024-02-23T10:13:23;9.13;;;8.73;;
7833;SDS011;3962;42.696;23.354;2024-02-23T10:15:50;9.97;;;9.57;;
7833;SDS011;3962;42.696;23.354;2024-02-23T10:18:17;7.93;;;7.63;;
7833;SDS011;3962;42.696;23.354;2024-02-23T10:20:45;9.37;;;8.97;;
7833;SDS011;3962;42.696;23.354;2024-02-23T10:23:12;8.67;;;8.30;;
7833;SDS011;3962;42.696;23.354;2024-02-23T10:25:39;7.30;;;7.00;;
7833;SDS011;3962;42.696;23.354;2024-02-23T10:28:06;8.87;;;8.47;;
7833;SDS011;3962;42.696;23.354;2024-02-23T10:30:37;8.57;;;8.17;;
7833;SDS011;3962;42.696;23.354;2024-02-23T10:33:04;8.73;;;8.33;;
7833;SDS011;3962;42.696;23.354;2024-02-23T10:35:31;10.57;;;10.03;;
7833;SDS011;3962;42.696;23.354;2024-02-23T10:38:00;9.23;;;8.83;;
7833;SDS011;3962;42.696;23.354;2024-02-23T10:40:29;9.43;;;9.03;;
7833;SDS011;3962;42.696;23.354;2024-02-23T10:42:59;8.97;;;8.57;;
7833;SDS011;3962;42.696;23.354;2024-02-23T10:45:29;8.90;;;8.50;;
7833;SDS011;3962;42.696;23.354;2024-02-23T10:47:57;8.83;;;8.43;;
7833;SDS011;3962;42.696;23.354;2024-02-23T10:50:26;9.40;;;9.00;;
7833;SDS011;3962;42.696;23.354;2024-02-23T10:52:53;9.20;;;8.70;;
7833;SDS011;3962;42.696;23.354;2024-02-23T10:55:22;8.37;;;8.07;;
7833;SDS011;3962;42.696;23.354;2024-02-23T10:57:51;7.67;;;7.37;;
7833;SDS011;3962;42.696;23.354;2024-02-23T11:00:21;9.70;;;9.20;;
7833;SDS011;3962;42.696;23.354;2024-02-23T11:02:50;8.93;;;8.53;;
7833;SDS011;3962;42.696;23.354;2024-02-23T11:05:20;9.63;;;9.17;;
7833;SDS011;3962;42.696;23.354;2024-02-23T11:07:49;8.77;;;8.37;;
7833;SDS011;3962;42.696;23.354;2024-02-23T11:10:16;8.90;;;8.50;;
7833;SDS011;3962;42.696;23.354;2024-02-23T11:12:44;8.50;;;8.20;;
7833;SDS011;3962;42.696;23.354;2024-02-23T11:15:24;9.23;;;8.83;;
7833;SDS011;3962;42.696;23.354;2024-02-23T11:17:52;8.97;;;8.57;;
7833;SDS011;3962;42.696;23.354;2024-02-23T11:20:20;7.93;;;7.63;;
7833;SDS011;3962;42.696;23.354;2024-02-23T11:22:52;8.23;;;7.93;;
7833;SDS011;3962;42.696;23.354;2024-02-23T11:25:19;9.57;;;9.17;;
7833;SDS011;3962;42.696;23.354;2024-02-23T11:27:48;8.50;;;8.10;;
7833;SDS011;3962;42.696;23.354;2024-02-23T11:30:16;9.63;;;9.23;;
7833;SDS011;3962;42.696;23.354;2024-02-23T11:32:44;7.67;;;7.37;;
7833;SDS011;3962;42.696;23.354;2024-02-23T11:35:13;8.67;;;8.27;;
7833;SDS011;3962;42.696;23.354;2024-02-23T11:37:46;8.60;;;8.20;;
7833;SDS011;3962;42.696;23.354;2024-02-23T11:40:14;7.67;;;7.37;;
7833;SDS011;3962;42.696;23.354;2024-02-23T11:42:41;8.30;;;7.97;;
7833;SDS011;3962;42.696;23.354;2024-02-23T11:45:08;8.20;;;7.90;;
7833;SDS011;3962;42.696;23.354;2024-02-23T11:47:36;7.50;;;7.20;;
7833;SDS011;3962;42.696;23.354;2024-02-23T11:50:03;8.03;;;7.73;;
7833;SDS011;3962;42.696;23.354;2024-02-23T11:52:31;8.23;;;7.93;;
7833;SDS011;3962;42.696;23.354;2024-02-23T11:54:59;8.17;;;7.87;;
7833;SDS011;3962;42.696;23.354;2024-02-23T11:57:26;7.37;;;7.07;;
7833;SDS011;3962;42.696;23.354;2024-02-23T11:59:53;9.10;;;8.70;;
7833;SDS011;3962;42.696;23.354;2024-02-23T12:02:23;7.47;;;7.17;;
7833;SDS011;3962;42.696;23.354;2024-02-23T12:04:50;8.43;;;7.93;;
7833;SDS011;3962;42.696;23.354;2024-02-23T12:07:17;7.63;;;7.33;;
7833;SDS011;3962;42.696;23.354;2024-02-23T12:09:46;8.50;;;8.10;;
7833;SDS011;3962;42.696;23.354;2024-02-23T12:12:14;7.37;;;7.07;;
7833;SDS011;3962;42.696;23.354;2024-02-23T12:14:41;9.23;;;8.83;;
7833;SDS011;3962;42.696;23.354;2024-02-23T12:17:08;7.90;;;7.60;;
7833;SDS011;3962;42.696;23.354;2024-02-23T12:19:37;7.87;;;7.57;;
7833;SDS011;3962;42.696;23.354;2024-02-23T12:22:04;8.07;;;7.77;;
7833;SDS011;3962;42.696;23.354;2024-02-23T12:24:31;7.97;;;7.67;;
7833;SDS011;3962;42.696;23.354;2024-02-23T12:26:58;6.97;;;6.67;;
7833;SDS011;3962;42.696;23.354;2024-02-23T12:29:26;7.00;;;6.70;;
7833;SDS011;3962;42.696;23.354;2024-02-23T12:32:02;7.53;;;7.23;;
7833;SDS011;3962;42.696;23.354;2024-02-23T12:34:29;7.33;;;7.03;;
7833;SDS011;3962;42.696;23.354;2024-02-23T12:36:56;7.73;;;7.43;;
7833;SDS011;3962;42.696;23.354;2024-02-23T12:39:23;7.53;;;7.23;;
7833;SDS011;3962;42.696;23.354;2024-02-23T12:41:49;6.53;;;6.23;;
7833;SDS011;3962;42.696;23.354;2024-02-23T12:44:17;7.17;;;6.87;;
7833;SDS011;3962;42.696;23.354;2024-02-23T12:46:45;6.90;;;6.60;;
7833;SDS011;3962;42.696;23.354;2024-02-23T12:49:11;7.57;;;7.27;;
7833;SDS011;3962;42.696;23.354;2024-02-23T12:51:39;7.47;;;7.17;;
7833;SDS011;3962;42.696;23.354;2024-02-23T12:54:06;8.13;;;7.73;;
7833;SDS011;3962;42.696;23.354;2024-02-23T12:56:32;8.07;;;7.77;;
7833;SDS011;3962;42.696;23.354;2024-02-23T12:58:59;8.70;;;8.30;;
7833;SDS011;3962;42.696;23.354;2024-02-23T13:01:26;8.53;;;8.13;;
7833;SDS011;3962;42.696;23.354;2024-02-23T13:03:54;7.27;;;6.97;;
7833;SDS011;3962;42.696;23.354;2024-02-23T13:06:21;8.07;;;7.77;;
7833;SDS011;3962;42.696;23.354;2024-02-23T13:08:48;8.57;;;8.27;;
7833;SDS011;3962;42.696;23.354;2024-02-23T13:11:15;9.57;;;9.17;;
7833;SDS011;3962;42.696;23.354;2024-02-23T13:13:41;8.37;;;8.07;;
7833;SDS011;3962;42.696;23.354;2024-02-23T13:16:08;8.03;;;7.73;;
7833;SDS011;3962;42.696;23.354;2024-02-23T13:18:37;7.33;;;7.03;;
7833;SDS011;3962;42.696;23.354;2024-02-23T13:21:05;7.37;;;7.07;;
7833;SDS011;3962;42.696;23.354;2024-02-23T13:23:32;7.17;;;6.87;;
7833;SDS011;3962;42.696;23.354;2024-02-23T13:25:59;8.77;;;8.37;;
7833;SDS011;3962;42.696;23.354;2024-02-23T13:28:28;7.93;;;7.63;;
7833;SDS011;3962;42.696;23.354;2024-02-23T13:30:55;8.90;;;8.50;;
7833;SDS011;3962;42.696;23.354;2024-02-23T13:33:22;7.30;;;7.00;;
7833;SDS011;3962;42.696;23.354;2024-02-23T13:35:49;7.67;;;7.37;;
7833;SDS011;3962;42.696;23.354;2024-02-23T13:38:17;8.07;;;7.77;;
7833;SDS011;3962;42.696;23.354;2024-02-23T13:40:45;7.43;;;7.13;;
7833;SDS011;3962;42.696;23.354;2024-02-23T13:43:12;8.97;;;8.57;;
7833;SDS011;3962;42.696;23.354;2024-02-23T13:45:47;8.93;;;8.43;;
7833;SDS011;3962;42.696;23.354;2024-02-23T13:48:15;8.80;;;8.40;;
7833;SDS011;3962;42.696;23.354;2024-02-23T13:50:43;8.17;;;7.87;;
7833;SDS011;3962;42.696;23.354;2024-02-23T13:53:11;9.03;;;8.63;;
7833;SDS011;3962;42.696;23.354;2024-02-23T13:55:40;8.20;;;7.90;;
7833;SDS011;3962;42.696;23.354;2024-02-23T13:58:09;8.63;;;8.27;;
7833;SDS011;3962;42.696;23.354;2024-02-23T14:00:37;8.93;;;8.53;;
7833;SDS011;3962;42.696;23.354;2024-02-23T14:03:04;8.37;;;8.07;;
7833;SDS011;3962;42.696;23.354;2024-02-23T14:05:31;8.87;;;8.47;;
7833;SDS011;3962;42.696;23.354;2024-02-23T14:07:58;8.93;;;8.53;;
7833;SDS011;3962;42.696;23.354;2024-02-23T14:10:24;8.97;;;8.57;;
7833;SDS011;3962;42.696;23.354;2024-02-23T14:12:53;9.03;;;8.63;;
7833;SDS011;3962;42.696;23.354;2024-02-23T14:15:20;7.60;;;7.30;;
7833;SDS011;3962;42.696;23.354;2024-02-23T14:17:47;7.63;;;7.33;;
7833;SDS011;3962;42.696;23.354;2024-02-23T14:20:14;9.10;;;8.70;;
7833;SDS011;3962;42.696;23.354;2024-02-23T14:22:41;8.03;;;7.73;;
7833;SDS011;3962;42.696;23.354;2024-02-23T14:25:08;7.67;;;7.37;;
7833;SDS011;3962;42.696;23.354;2024-02-23T14:27:35;7.73;;;7.43;;
7833;SDS011;3962;42.696;23.354;2024-02-23T14:30:03;7.43;;;7.13;;
7833;SDS011;3962;42.696;23.354;2024-02-23T14:32:31;8.07;;;7.77;;
7833;SDS011;3962;42.696;23.354;2024-02-23T14:34:57;9.03;;;8.63;;
7833;SDS011;3962;42.696;23.354;2024-02-23T14:37:26;9.10;;;8.70;;
7833;SDS011;3962;42.696;23.354;2024-02-23T14:39:52;7.93;;;7.63;;
7833;SDS011;3962;42.696;23.354;2024-02-23T14:42:19;8.10;;;7.80;;
7833;SDS011;3962;42.696;23.354;2024-02-23T14:44:46;7.67;;;7.37;;
7833;SDS011;3962;42.696;23.354;2024-02-23T14:47:16;8.47;;;8.17;;